createdAt,value
2019-03-19T00:01:26.461Z,5.30
2019-03-19T00:03:53.116Z,3.87
2019-03-19T00:06:19.751Z,4.83
2019-03-19T00:08:46.154Z,5.43
2019-03-19T00:11:12.792Z,3.77
2019-03-19T00:13:39.178Z,6.27
2019-03-19T00:16:05.571Z,4.70
2019-03-19T00:18:31.976Z,3.10
2019-03-19T00:20:58.390Z,3.03
2019-03-19T00:23:24.852Z,2.50
2019-03-19T00:25:53.177Z,1.87
2019-03-19T00:28:19.882Z,2.10
2019-03-19T00:30:46.300Z,2.10
2019-03-19T00:33:12.761Z,1.87
2019-03-19T00:35:40.054Z,2.00
2019-03-19T00:38:06.454Z,1.83
2019-03-19T00:40:32.877Z,1.87
2019-03-19T00:42:59.602Z,4.00
2019-03-19T00:45:25.963Z,1.77
2019-03-19T00:47:52.368Z,2.20
2019-03-19T00:50:18.844Z,1.93
2019-03-19T00:52:45.120Z,3.40
2019-03-19T00:55:11.605Z,3.33
2019-03-19T00:57:38.254Z,3.20
2019-03-19T01:00:18.302Z,3.73
2019-03-19T01:02:44.663Z,3.90
2019-03-19T01:05:11.413Z,4.47
2019-03-19T01:07:37.854Z,4.43
2019-03-19T01:10:17.365Z,4.03
2019-03-19T01:12:43.284Z,4.40
2019-03-19T01:15:12.072Z,9.83
2019-03-19T01:17:39.559Z,6.87
2019-03-19T01:20:13.940Z,8.58
2019-03-19T01:22:40.261Z,5.53
2019-03-19T01:25:08.302Z,4.27
2019-03-19T01:27:34.794Z,4.27
2019-03-19T01:30:01.526Z,8.53
2019-03-19T01:32:27.896Z,7.13
2019-03-19T01:34:55.272Z,10.00
2019-03-19T01:37:21.840Z,8.53
2019-03-19T01:39:48.369Z,11.87
2019-03-19T01:42:15.096Z,10.17
2019-03-19T01:44:41.510Z,9.90
2019-03-19T01:47:07.878Z,11.93
2019-03-19T01:49:34.272Z,8.17
2019-03-19T01:52:01.931Z,10.03
2019-03-19T01:54:28.189Z,9.60
2019-03-19T01:56:54.768Z,13.67
2019-03-19T01:59:22.135Z,16.80
2019-03-19T02:01:48.791Z,14.07
2019-03-19T02:04:15.173Z,9.77
2019-03-19T02:06:41.798Z,8.23
2019-03-19T02:09:09.009Z,8.23
2019-03-19T02:11:35.392Z,7.17
2019-03-19T02:14:02.060Z,5.93
2019-03-19T02:16:28.453Z,4.03
2019-03-19T02:18:54.818Z,3.90
2019-03-19T02:21:22.061Z,10.20
2019-03-19T02:23:52.502Z,4.83
2019-03-19T02:26:20.006Z,4.47
2019-03-19T02:28:47.378Z,3.67
2019-03-19T02:31:13.657Z,5.47
2019-03-19T02:33:40.060Z,3.63
2019-03-19T02:36:11.343Z,4.27
2019-03-19T02:38:40.164Z,3.47
2019-03-19T02:41:06.908Z,5.13
2019-03-19T02:43:33.472Z,4.43
2019-03-19T02:45:59.832Z,4.03
2019-03-19T02:48:26.117Z,7.10
2019-03-19T02:50:53.466Z,5.73
2019-03-19T02:53:21.134Z,4.30
2019-03-19T02:55:47.485Z,5.67
2019-03-19T02:58:14.943Z,5.83
2019-03-19T03:00:41.297Z,6.60
2019-03-19T03:03:07.680Z,5.43
2019-03-19T03:05:34.279Z,5.00
2019-03-19T03:08:00.723Z,5.47
2019-03-19T03:10:27.387Z,6.70
2019-03-19T03:12:53.670Z,8.13
2019-03-19T03:15:20.061Z,6.07
2019-03-19T03:17:46.484Z,5.53
2019-03-19T03:20:16.509Z,5.10
2019-03-19T03:22:43.178Z,7.97
2019-03-19T03:25:12.556Z,8.47
2019-03-19T03:27:38.806Z,5.57
2019-03-19T03:30:12.200Z,10.33
2019-03-19T03:32:38.541Z,5.50
2019-03-19T03:35:06.636Z,5.27
2019-03-19T03:37:33.335Z,6.37
2019-03-19T03:39:59.904Z,7.27
2019-03-19T03:42:26.715Z,5.90
2019-03-19T03:44:52.965Z,9.20
2019-03-19T03:47:19.380Z,6.73
2019-03-19T03:49:45.970Z,6.33
2019-03-19T03:52:12.551Z,9.23
2019-03-19T03:54:38.891Z,13.27
2019-03-19T03:57:05.159Z,9.33
2019-03-19T03:59:31.863Z,10.00
2019-03-19T04:01:58.191Z,15.97
2019-03-19T04:04:24.928Z,11.53
2019-03-19T04:06:51.542Z,6.80
2019-03-19T04:09:19.787Z,7.07
2019-03-19T04:11:46.115Z,6.63
2019-03-19T04:14:12.458Z,8.57
2019-03-19T04:16:39.002Z,9.33
2019-03-19T04:19:05.382Z,8.57
2019-03-19T04:21:31.749Z,7.40
2019-03-19T04:23:58.080Z,7.80
2019-03-19T04:26:24.689Z,9.40
2019-03-19T04:28:51.962Z,8.67
2019-03-19T04:31:18.571Z,9.37
2019-03-19T04:33:44.915Z,9.47
2019-03-19T04:36:11.222Z,9.37
2019-03-19T04:38:37.604Z,8.90
2019-03-19T04:41:03.854Z,10.60
2019-03-19T04:43:30.537Z,10.77
2019-03-19T04:45:57.285Z,10.13
2019-03-19T04:48:23.631Z,8.17
2019-03-19T04:50:49.908Z,10.73
2019-03-19T04:53:17.608Z,7.53
2019-03-19T04:55:43.864Z,11.50
2019-03-19T04:58:10.481Z,6.63
2019-03-19T05:00:36.854Z,10.73
2019-03-19T05:03:03.653Z,9.00
2019-03-19T05:05:29.986Z,7.40
2019-03-19T05:07:56.246Z,7.17
2019-03-19T05:10:23.502Z,8.43
2019-03-19T05:12:49.781Z,8.87
2019-03-19T05:15:16.140Z,7.63
2019-03-19T05:17:42.778Z,13.23
2019-03-19T05:20:10.543Z,17.87
2019-03-19T05:22:37.274Z,13.83
2019-03-19T05:25:04.677Z,12.67
2019-03-19T05:27:37.312Z,20.07
2019-03-19T05:30:00.470Z,15.60
2019-03-19T05:32:27.152Z,8.40
2019-03-19T05:34:53.651Z,12.10
2019-03-19T05:37:19.928Z,11.93
2019-03-19T05:39:46.345Z,14.07
2019-03-19T05:42:12.711Z,18.17
2019-03-19T05:44:41.543Z,17.30
2019-03-19T05:47:07.810Z,11.47
2019-03-19T05:49:34.059Z,11.53
2019-03-19T05:52:00.603Z,15.13
2019-03-19T05:54:26.942Z,10.43
2019-03-19T05:56:53.203Z,12.17
2019-03-19T05:59:25.572Z,15.87
2019-03-19T06:01:51.921Z,17.90
2019-03-19T06:04:18.250Z,17.90
2019-03-19T06:06:44.532Z,19.27
2019-03-19T06:09:10.757Z,14.80
2019-03-19T06:11:37.106Z,16.47
2019-03-19T06:14:03.345Z,15.47
2019-03-19T06:16:29.959Z,17.37
2019-03-19T06:18:56.302Z,14.33
2019-03-19T06:21:22.635Z,11.73
2019-03-19T06:23:48.898Z,14.73
2019-03-19T06:26:15.271Z,12.67
2019-03-19T06:28:41.855Z,10.33
2019-03-19T06:31:08.410Z,10.53
2019-03-19T06:37:10.073Z,11.73
2019-03-19T06:39:36.713Z,11.33
2019-03-19T06:42:03.353Z,10.57
2019-03-19T06:44:29.626Z,10.43
2019-03-19T06:46:55.966Z,10.73
2019-03-19T06:49:22.202Z,17.37
2019-03-19T06:51:48.480Z,18.53
2019-03-19T06:54:14.847Z,14.47
2019-03-19T06:56:41.450Z,15.73
2019-03-19T06:59:07.947Z,17.30
2019-03-19T07:01:34.312Z,16.07
2019-03-19T07:04:00.616Z,18.23
2019-03-19T07:06:27.299Z,20.40
2019-03-19T07:08:53.919Z,17.50
2019-03-19T07:11:20.169Z,19.87
2019-03-19T07:13:46.523Z,16.30
2019-03-19T07:16:13.027Z,18.00
2019-03-19T07:18:39.677Z,14.47
2019-03-19T07:21:06.238Z,16.07
2019-03-19T07:23:32.782Z,15.60
2019-03-19T07:25:59.398Z,15.47
2019-03-19T07:28:25.698Z,15.33
2019-03-19T07:30:52.071Z,12.13
2019-03-19T07:33:18.400Z,14.97
2019-03-19T07:35:44.763Z,9.23
2019-03-19T07:38:11.043Z,10.60
2019-03-19T07:40:37.671Z,9.63
2019-03-19T07:43:04.311Z,6.70
2019-03-19T07:45:33.707Z,6.87
2019-03-19T07:48:03.223Z,7.67
2019-03-19T07:50:29.587Z,6.73
2019-03-19T07:52:56.195Z,6.83
2019-03-19T07:55:22.861Z,5.40
2019-03-19T07:57:49.433Z,5.83
2019-03-19T08:00:16.897Z,9.33
2019-03-19T08:02:43.638Z,7.87
2019-03-19T08:05:11.188Z,5.63
2019-03-19T08:07:37.597Z,6.00
2019-03-19T08:10:06.861Z,14.63
2019-03-19T08:12:33.857Z,6.77
2019-03-19T08:15:01.238Z,6.83
2019-03-19T08:17:27.586Z,7.87
2019-03-19T08:19:54.248Z,6.60
2019-03-19T08:22:20.945Z,9.57
2019-03-19T08:24:47.543Z,6.03
2019-03-19T08:27:13.958Z,7.67
2019-03-19T08:29:40.370Z,8.53
2019-03-19T08:32:06.767Z,7.87
2019-03-19T08:34:33.139Z,6.77
2019-03-19T08:36:59.763Z,7.83
2019-03-19T08:39:26.031Z,9.13
2019-03-19T08:41:52.427Z,5.27
2019-03-19T08:44:27.479Z,8.37
2019-03-19T08:46:46.986Z,10.37
2019-03-19T08:49:13.310Z,7.80
2019-03-19T08:51:40.204Z,10.00
2019-03-19T08:54:06.607Z,8.27
2019-03-19T08:56:32.866Z,11.70
2019-03-19T08:59:05.869Z,8.20
2019-03-19T09:01:28.044Z,7.33
2019-03-19T09:03:57.969Z,7.70
2019-03-19T09:06:24.605Z,8.83
2019-03-19T09:08:50.945Z,7.83
2019-03-19T09:11:17.222Z,7.30
2019-03-19T09:13:43.789Z,6.60
2019-03-19T09:16:10.140Z,8.73
2019-03-19T09:18:36.492Z,8.93
2019-03-19T09:21:03.182Z,6.27
2019-03-19T09:23:29.832Z,5.73
2019-03-19T09:25:56.523Z,5.60
2019-03-19T09:28:23.238Z,7.30
2019-03-19T09:30:49.590Z,7.70
2019-03-19T09:33:16.214Z,5.60
2019-03-19T09:35:42.935Z,6.23
2019-03-19T09:38:09.574Z,5.97
2019-03-19T09:40:36.340Z,4.93
2019-03-19T09:43:02.867Z,6.30
2019-03-19T09:45:29.833Z,5.77
2019-03-19T09:47:56.195Z,5.57
2019-03-19T09:50:24.357Z,7.73
2019-03-19T09:52:50.806Z,7.07
2019-03-19T09:55:17.367Z,7.00
2019-03-19T09:57:44.115Z,8.50
2019-03-19T10:00:14.239Z,7.33
2019-03-19T10:02:40.882Z,5.33
2019-03-19T10:05:07.230Z,3.23
2019-03-19T10:07:33.767Z,6.67
2019-03-19T10:10:00.137Z,5.63
2019-03-19T10:12:26.470Z,7.90
2019-03-19T10:14:52.749Z,4.97
2019-03-19T10:17:19.119Z,5.40
2019-03-19T10:19:45.589Z,6.07
2019-03-19T10:22:11.875Z,4.80
2019-03-19T10:24:38.222Z,8.20
2019-03-19T10:27:04.959Z,5.50
2019-03-19T10:29:38.298Z,6.07
2019-03-19T10:31:59.671Z,5.67
2019-03-19T10:34:26.190Z,4.70
2019-03-19T10:36:53.013Z,6.50
2019-03-19T10:39:19.395Z,7.17
2019-03-19T10:41:47.291Z,6.97
2019-03-19T10:44:13.901Z,4.60
2019-03-19T10:46:40.803Z,5.10
2019-03-19T10:49:07.164Z,5.47
2019-03-19T10:51:35.140Z,5.67
2019-03-19T10:54:01.658Z,5.37
2019-03-19T10:56:29.038Z,6.57
2019-03-19T10:58:55.652Z,5.30
2019-03-19T11:01:23.076Z,6.77
2019-03-19T11:03:49.491Z,6.57
2019-03-19T11:06:16.298Z,4.37
2019-03-19T11:08:42.934Z,2.90
2019-03-19T11:11:09.335Z,3.97
2019-03-19T11:13:35.780Z,4.80
2019-03-19T11:16:02.454Z,6.03
2019-03-19T11:18:29.093Z,5.80
2019-03-19T11:20:55.850Z,2.63
2019-03-19T11:23:22.543Z,5.23
2019-03-19T11:25:54.441Z,6.97
2019-03-19T11:28:17.556Z,3.70
2019-03-19T11:30:43.915Z,4.57
2019-03-19T11:33:10.411Z,5.13
2019-03-19T11:35:36.759Z,2.47
2019-03-19T11:38:03.709Z,3.60
2019-03-19T11:40:29.966Z,4.10
2019-03-19T11:42:56.378Z,3.33
2019-03-19T11:45:23.513Z,4.93
2019-03-19T11:47:50.129Z,6.10
2019-03-19T11:50:24.092Z,4.17
2019-03-19T11:52:51.129Z,8.60
2019-03-19T11:55:18.690Z,4.27
2019-03-19T11:57:45.333Z,2.33
2019-03-19T12:00:31.094Z,5.00
2019-03-19T12:02:57.644Z,7.50
2019-03-19T12:05:23.990Z,4.30
2019-03-19T12:07:50.271Z,6.73
2019-03-19T12:10:17.164Z,7.63
2019-03-19T12:12:43.686Z,2.27
2019-03-19T12:15:10.996Z,5.83
2019-03-19T12:17:37.344Z,4.40
2019-03-19T12:20:06.536Z,4.57
2019-03-19T12:22:32.847Z,4.20
2019-03-19T12:24:59.139Z,3.03
2019-03-19T12:27:25.521Z,3.53
2019-03-19T12:29:51.994Z,4.93
2019-03-19T12:32:18.856Z,5.10
2019-03-19T12:34:45.257Z,4.00
2019-03-19T12:37:11.740Z,5.27
2019-03-19T12:39:38.262Z,4.63
2019-03-19T12:42:04.525Z,3.43
2019-03-19T12:44:30.841Z,5.43
2019-03-19T12:46:57.557Z,6.57
2019-03-19T12:49:24.188Z,4.77
2019-03-19T12:51:50.574Z,4.00
2019-03-19T12:54:17.212Z,5.23
2019-03-19T12:56:44.845Z,3.97
2019-03-19T12:59:19.735Z,2.03
2019-03-19T13:01:40.838Z,5.73
2019-03-19T13:04:07.184Z,4.83
2019-03-19T13:06:33.426Z,6.97
2019-03-19T13:08:59.994Z,7.53
2019-03-19T13:11:26.258Z,5.70
2019-03-19T13:13:52.614Z,4.47
2019-03-19T13:16:18.883Z,4.73
2019-03-19T13:18:45.233Z,4.90
2019-03-19T13:21:11.763Z,6.40
2019-03-19T13:23:38.031Z,5.80
2019-03-19T13:26:05.633Z,6.27
2019-03-19T13:28:32.930Z,3.67
2019-03-19T13:30:59.451Z,4.57
2019-03-19T13:33:25.813Z,6.67
2019-03-19T13:35:52.091Z,6.23
2019-03-19T13:38:18.922Z,5.83
2019-03-19T13:40:45.582Z,8.63
2019-03-19T13:43:11.949Z,5.87
2019-03-19T13:45:38.539Z,3.40
2019-03-19T13:48:04.896Z,5.13
2019-03-19T13:50:31.636Z,7.30
2019-03-19T13:52:59.120Z,5.40
2019-03-19T13:55:25.643Z,5.23
2019-03-19T13:57:51.917Z,8.97
2019-03-19T14:00:18.595Z,3.87
2019-03-19T14:02:45.307Z,5.87
2019-03-19T14:05:16.588Z,5.80
2019-03-19T14:07:43.052Z,5.77
2019-03-19T14:10:19.208Z,4.93
2019-03-19T14:12:45.944Z,7.63
2019-03-19T14:15:18.855Z,4.47
2019-03-19T14:17:45.474Z,7.40
2019-03-19T14:20:13.867Z,6.50
2019-03-19T14:22:40.369Z,6.07
2019-03-19T14:25:08.927Z,3.53
2019-03-19T14:27:35.206Z,5.97
2019-03-19T14:30:01.694Z,5.00
2019-03-19T14:32:28.035Z,3.67
2019-03-19T14:34:54.393Z,5.37
2019-03-19T14:37:21.314Z,4.07
2019-03-19T14:39:47.590Z,4.97
2019-03-19T14:42:14.304Z,3.87
2019-03-19T14:44:40.569Z,3.87
2019-03-19T14:47:06.919Z,4.83
2019-03-19T14:49:33.446Z,3.47
2019-03-19T14:51:59.686Z,5.80
2019-03-19T14:54:25.962Z,7.33
2019-03-19T14:56:52.316Z,5.10
2019-03-19T14:59:18.582Z,4.57
2019-03-19T15:01:44.922Z,5.83
2019-03-19T15:04:11.277Z,4.70
2019-03-19T15:06:37.814Z,5.27
2019-03-19T15:09:05.067Z,4.43
2019-03-19T15:11:31.541Z,6.23
2019-03-19T15:13:57.776Z,3.97
2019-03-19T15:16:24.242Z,7.47
2019-03-19T15:18:50.594Z,4.17
2019-03-19T15:21:16.944Z,3.93
2019-03-19T15:23:44.430Z,4.63
2019-03-19T15:26:11.126Z,9.47
2019-03-19T15:28:37.757Z,3.50
2019-03-19T15:31:05.251Z,9.57
2019-03-19T15:33:31.640Z,6.43
2019-03-19T15:35:57.870Z,5.43
2019-03-19T15:38:24.151Z,5.77
2019-03-19T15:40:50.549Z,6.77
2019-03-19T15:43:17.190Z,4.30
2019-03-19T15:45:43.760Z,4.87
2019-03-19T15:48:10.480Z,5.10
2019-03-19T15:50:37.110Z,3.70
2019-03-19T15:53:03.655Z,5.67
2019-03-19T15:55:30.052Z,3.40
2019-03-19T15:57:56.822Z,4.70
2019-03-19T16:00:23.193Z,3.17
2019-03-19T16:02:49.893Z,3.40
2019-03-19T16:05:16.546Z,5.33
2019-03-19T16:07:42.991Z,4.97
2019-03-19T16:10:15.579Z,6.80
2019-03-19T16:12:41.917Z,6.53
2019-03-19T16:15:17.043Z,3.93
2019-03-19T16:17:43.379Z,6.67
2019-03-19T16:20:11.537Z,2.60
2019-03-19T16:22:37.894Z,3.37
2019-03-19T16:25:06.199Z,2.07
2019-03-19T16:27:32.554Z,6.20
2019-03-19T16:29:59.033Z,6.20
2019-03-19T16:32:25.282Z,7.27
2019-03-19T16:34:51.528Z,5.47
2019-03-19T16:37:17.983Z,27.83
2019-03-19T16:39:44.245Z,58.10
2019-03-19T16:42:10.591Z,52.43
2019-03-19T16:44:37.126Z,52.07
2019-03-19T16:47:03.474Z,51.63
2019-03-19T16:49:29.722Z,45.03
2019-03-19T16:51:56.027Z,37.10
2019-03-19T16:54:22.386Z,28.17
2019-03-19T16:56:48.769Z,37.40
2019-03-19T16:59:15.108Z,21.13
2019-03-19T17:01:42.113Z,12.07
2019-03-19T17:04:08.515Z,8.93
2019-03-19T17:06:34.936Z,11.67
2019-03-19T17:09:01.386Z,17.43
2019-03-19T17:11:30.442Z,15.00
2019-03-19T17:13:56.681Z,11.27
2019-03-19T17:16:24.304Z,9.77
2019-03-19T17:18:51.900Z,5.93
2019-03-19T17:21:19.528Z,9.10
2019-03-19T17:23:45.768Z,3.70
2019-03-19T17:26:12.023Z,4.53
2019-03-19T17:28:38.393Z,3.60
2019-03-19T17:31:04.762Z,3.57
2019-03-19T17:33:31.128Z,3.93
2019-03-19T17:35:57.680Z,5.42
2019-03-19T17:38:24.037Z,8.53
2019-03-19T17:40:50.564Z,2.57
2019-03-19T17:43:16.834Z,5.47
2019-03-19T17:45:43.318Z,3.23
2019-03-19T17:48:15.975Z,4.73
2019-03-19T17:50:40.022Z,5.67
2019-03-19T17:53:06.622Z,3.13
2019-03-19T17:55:34.282Z,8.53
2019-03-19T17:58:00.781Z,5.93
2019-03-19T18:00:28.953Z,3.30
2019-03-19T18:02:55.573Z,5.37
2019-03-19T18:05:21.960Z,4.60
2019-03-19T18:07:48.770Z,3.80
2019-03-19T18:10:15.103Z,2.83
2019-03-19T18:12:41.952Z,6.53
2019-03-19T18:15:10.494Z,9.73
2019-03-19T18:17:37.018Z,10.50
2019-03-19T18:20:07.365Z,8.20
2019-03-19T18:22:33.743Z,7.27
2019-03-19T18:25:01.250Z,6.27
2019-03-19T18:27:27.507Z,4.10
2019-03-19T18:29:55.518Z,4.13
2019-03-19T18:32:22.205Z,2.93
2019-03-19T18:34:48.600Z,3.77
2019-03-19T18:37:15.214Z,2.67
2019-03-19T18:39:41.490Z,4.43
2019-03-19T18:42:08.178Z,4.37
2019-03-19T18:44:34.424Z,3.07
2019-03-19T18:47:00.675Z,4.23
2019-03-19T18:49:26.954Z,3.93
2019-03-19T18:51:53.334Z,8.30
2019-03-19T18:54:20.796Z,4.83
2019-03-19T18:56:47.414Z,6.33
2019-03-19T18:59:13.656Z,3.23
2019-03-19T19:01:40.203Z,5.50
2019-03-19T19:04:06.477Z,4.03
2019-03-19T19:06:32.774Z,8.80
2019-03-19T19:08:59.314Z,5.77
2019-03-19T19:11:26.048Z,4.10
2019-03-19T19:13:52.678Z,4.30
2019-03-19T19:16:19.006Z,2.87
2019-03-19T19:18:45.540Z,5.57
2019-03-19T19:21:11.940Z,2.13
2019-03-19T19:23:38.531Z,2.67
2019-03-19T19:26:04.792Z,2.77
2019-03-19T19:28:31.063Z,4.77
2019-03-19T19:30:57.451Z,3.57
2019-03-19T19:33:23.786Z,3.30
2019-03-19T19:35:50.402Z,3.03
2019-03-19T19:38:16.771Z,3.77
2019-03-19T19:40:43.509Z,3.17
2019-03-19T19:43:09.868Z,5.23
2019-03-19T19:45:36.477Z,5.97
2019-03-19T19:48:03.118Z,4.57
2019-03-19T19:50:29.724Z,8.20
2019-03-19T19:52:56.346Z,10.57
2019-03-19T19:55:22.597Z,12.10
2019-03-19T19:57:48.976Z,9.17
2019-03-19T20:00:20.688Z,7.10
2019-03-19T20:02:47.261Z,7.27
2019-03-19T20:05:13.879Z,9.67
2019-03-19T20:07:40.526Z,6.80
2019-03-19T20:10:19.700Z,4.60
2019-03-19T20:12:46.217Z,3.73
2019-03-19T20:15:12.760Z,5.60
2019-03-19T20:17:39.036Z,5.53
2019-03-19T20:20:08.787Z,5.83
2019-03-19T20:22:35.485Z,3.13
2019-03-19T20:25:02.862Z,5.13
2019-03-19T20:27:29.301Z,4.23
2019-03-19T20:29:56.893Z,5.13
2019-03-19T20:32:23.506Z,8.13
2019-03-19T20:34:49.794Z,6.97
2019-03-19T20:37:16.075Z,7.20
2019-03-19T20:39:42.424Z,5.20
2019-03-19T20:42:08.980Z,6.53
2019-03-19T20:44:35.621Z,8.70
2019-03-19T20:47:01.999Z,4.70
2019-03-19T20:49:28.615Z,8.13
2019-03-19T20:51:55.258Z,6.10
2019-03-19T20:54:21.776Z,6.03
2019-03-19T20:56:49.301Z,5.83
2019-03-19T20:59:16.028Z,7.07
2019-03-19T21:01:42.867Z,9.47
2019-03-19T21:04:09.330Z,8.53
2019-03-19T21:06:36.013Z,6.27
2019-03-19T21:09:05.387Z,6.13
2019-03-19T21:11:31.836Z,5.83
2019-03-19T21:13:58.374Z,4.93
2019-03-19T21:16:25.049Z,6.23
2019-03-19T21:18:51.785Z,4.70
2019-03-19T21:21:18.503Z,3.93
2019-03-19T21:23:45.122Z,3.23
2019-03-19T21:26:12.752Z,3.13
2019-03-19T21:28:40.020Z,3.00
2019-03-19T21:31:06.272Z,2.13
2019-03-19T21:33:33.540Z,3.53
2019-03-19T21:35:59.989Z,3.77
2019-03-19T21:38:26.375Z,4.23
2019-03-19T21:40:52.718Z,2.43
2019-03-19T21:43:19.977Z,3.20
2019-03-19T21:45:46.483Z,1.97
2019-03-19T21:48:13.141Z,3.00
2019-03-19T21:50:39.755Z,4.50
2019-03-19T21:53:06.376Z,2.50
2019-03-19T21:55:32.627Z,3.67
2019-03-19T21:57:59.978Z,5.87
2019-03-19T22:00:26.528Z,4.83
2019-03-19T22:02:52.889Z,3.20
2019-03-19T22:05:19.354Z,7.00
2019-03-19T22:07:45.946Z,3.03
2019-03-19T22:10:14.814Z,4.70
2019-03-19T22:12:41.271Z,4.97
2019-03-19T22:15:23.210Z,4.97
2019-03-19T22:17:49.757Z,2.80
2019-03-19T22:20:16.641Z,5.27
2019-03-19T22:22:42.973Z,3.87
2019-03-19T22:25:10.960Z,5.63
2019-03-19T22:27:37.217Z,3.50
2019-03-19T22:30:07.387Z,3.00
2019-03-19T22:32:34.174Z,2.97
2019-03-19T22:35:00.515Z,3.93
2019-03-19T22:37:26.844Z,3.33
2019-03-19T22:39:53.495Z,3.07
2019-03-19T22:42:19.875Z,3.50
2019-03-19T22:44:46.159Z,3.07
2019-03-19T22:47:12.736Z,2.37
2019-03-19T22:49:39.082Z,2.80
2019-03-19T22:52:05.365Z,3.07
2019-03-19T22:54:31.746Z,3.03
2019-03-19T22:56:58.077Z,3.93
2019-03-19T22:59:24.726Z,2.57
2019-03-19T23:01:51.098Z,4.33
2019-03-19T23:04:26.898Z,3.80
2019-03-19T23:06:45.550Z,10.63
2019-03-19T23:09:12.148Z,5.67
2019-03-19T23:11:38.537Z,5.07
2019-03-19T23:14:05.267Z,5.40
2019-03-19T23:16:31.565Z,5.57
2019-03-19T23:18:57.910Z,2.80
2019-03-19T23:21:24.450Z,3.60
2019-03-19T23:23:50.851Z,2.90
2019-03-19T23:26:18.252Z,4.20
2019-03-19T23:28:44.786Z,3.67
2019-03-19T23:31:11.249Z,4.67
2019-03-19T23:33:37.861Z,6.50
2019-03-19T23:36:04.628Z,7.10
2019-03-19T23:38:31.212Z,8.87
2019-03-19T23:40:57.570Z,4.33
2019-03-19T23:43:23.858Z,6.47
2019-03-19T23:45:50.297Z,6.17
2019-03-19T23:48:16.902Z,5.03
2019-03-19T23:50:45.291Z,6.67
2019-03-19T23:53:11.632Z,3.93
2019-03-19T23:55:38.052Z,5.90
2019-03-19T23:58:04.768Z,5.20
